createdAt,value
2019-05-13T00:01:34.670Z,9.10
2019-05-13T00:04:04.053Z,9.20
2019-05-13T00:06:34.410Z,9.10
2019-05-13T00:09:03.714Z,9.10
2019-05-13T00:11:34.470Z,9.10
2019-05-13T00:14:04.239Z,9.10
2019-05-13T00:16:34.165Z,9.10
2019-05-13T00:19:03.976Z,9.10
2019-05-13T00:21:33.847Z,9.10
2019-05-13T00:24:03.923Z,9.10
2019-05-13T00:26:33.747Z,9.10
2019-05-13T00:29:04.039Z,9.00
2019-05-13T00:31:33.465Z,8.90
2019-05-13T00:34:03.655Z,8.90
2019-05-13T00:36:33.568Z,8.80
2019-05-13T00:39:03.610Z,8.80
2019-05-13T00:41:33.179Z,8.70
2019-05-13T00:44:03.678Z,8.70
2019-05-13T00:46:33.830Z,8.70
2019-05-13T00:49:01.124Z,8.70
2019-05-13T00:51:29.395Z,8.70
2019-05-13T00:53:58.030Z,8.60
2019-05-13T00:56:26.339Z,8.60
2019-05-13T00:58:54.663Z,8.60
2019-05-13T01:01:24.315Z,8.60
2019-05-13T01:03:53.331Z,8.50
2019-05-13T01:06:23.623Z,8.50
2019-05-13T01:08:53.595Z,8.50
2019-05-13T01:11:23.594Z,8.50
2019-05-13T01:13:53.578Z,8.50
2019-05-13T01:16:23.448Z,8.50
2019-05-13T01:18:53.315Z,8.50
2019-05-13T01:21:23.362Z,8.50
2019-05-13T01:23:51.353Z,8.50
2019-05-13T01:26:19.666Z,8.50
2019-05-13T01:28:48.005Z,8.50
2019-05-13T01:31:16.591Z,8.50
2019-05-13T01:33:44.933Z,8.50
2019-05-13T01:36:13.489Z,8.50
2019-05-13T01:38:43.588Z,8.40
2019-05-13T01:41:13.673Z,8.40
2019-05-13T01:43:43.955Z,8.50
2019-05-13T01:46:13.440Z,8.50
2019-05-13T01:48:43.703Z,8.50
2019-05-13T01:51:13.683Z,8.50
2019-05-13T01:53:43.879Z,8.50
2019-05-13T01:56:13.983Z,8.50
2019-05-13T01:58:41.556Z,8.50
2019-05-13T02:01:09.863Z,8.40
2019-05-13T02:03:38.089Z,8.30
2019-05-13T02:06:06.388Z,8.30
2019-05-13T02:08:34.683Z,8.30
2019-05-13T02:11:04.362Z,8.40
2019-05-13T02:13:34.343Z,8.40
2019-05-13T02:16:04.151Z,8.50
2019-05-13T02:18:34.181Z,8.60
2019-05-13T02:21:05.348Z,8.60
2019-05-13T02:23:34.008Z,8.60
2019-05-13T02:26:04.430Z,8.50
2019-05-13T02:28:33.348Z,8.40
2019-05-13T02:31:01.819Z,8.40
2019-05-13T02:33:33.537Z,8.40
2019-05-13T02:36:02.963Z,8.40
2019-05-13T02:38:34.826Z,8.40
2019-05-13T02:41:02.858Z,8.50
2019-05-13T02:43:33.342Z,8.50
2019-05-13T02:46:03.727Z,8.50
2019-05-13T02:48:32.636Z,8.50
2019-05-13T02:51:03.320Z,8.50
2019-05-13T02:53:33.248Z,8.50
2019-05-13T02:56:02.687Z,8.40
2019-05-13T02:58:32.982Z,8.30
2019-05-13T03:01:02.765Z,8.20
2019-05-13T03:03:32.795Z,8.20
2019-05-13T03:06:02.943Z,8.20
2019-05-13T03:08:41.008Z,8.20
2019-05-13T03:11:02.974Z,8.20
2019-05-13T03:13:32.801Z,8.20
2019-05-13T03:16:07.481Z,8.10
2019-05-13T03:18:35.870Z,8.10
2019-05-13T03:21:04.232Z,8.10
2019-05-13T03:23:33.118Z,8.00
2019-05-13T03:26:02.936Z,8.00
2019-05-13T03:28:33.570Z,8.00
2019-05-13T03:31:06.164Z,7.90
2019-05-13T03:33:36.617Z,7.90
2019-05-13T03:36:06.327Z,7.80
2019-05-13T03:38:32.850Z,7.90
2019-05-13T03:41:03.292Z,7.90
2019-05-13T03:43:32.744Z,7.90
2019-05-13T03:46:03.515Z,8.00
2019-05-13T03:48:33.482Z,8.10
2019-05-13T03:51:02.712Z,8.10
2019-05-13T03:53:32.642Z,8.10
2019-05-13T03:56:02.566Z,8.10
2019-05-13T03:58:32.400Z,8.00
2019-05-13T04:01:02.889Z,8.00
2019-05-13T04:03:33.102Z,7.90
2019-05-13T04:06:03.503Z,7.90
2019-05-13T04:08:32.745Z,7.90
2019-05-13T04:11:02.987Z,7.90
2019-05-13T04:13:33.474Z,7.90
2019-05-13T04:16:03.894Z,7.90
2019-05-13T04:18:32.103Z,8.00
2019-05-13T04:21:02.761Z,8.00
2019-05-13T04:23:32.304Z,8.00
2019-05-13T04:26:03.128Z,8.00
2019-05-13T04:28:33.149Z,8.00
2019-05-13T04:31:03.448Z,8.00
2019-05-13T04:33:33.386Z,7.90
2019-05-13T04:36:02.548Z,7.90
2019-05-13T04:38:33.070Z,7.80
2019-05-13T04:41:03.541Z,7.90
2019-05-13T04:43:34.563Z,7.90
2019-05-13T04:46:02.559Z,7.90
2019-05-13T04:48:34.015Z,7.90
2019-05-13T04:51:03.062Z,7.90
2019-05-13T04:53:33.307Z,7.90
2019-05-13T04:56:03.177Z,7.90
2019-05-13T04:58:32.336Z,7.90
2019-05-13T05:01:25.729Z,8.10
2019-05-13T05:03:58.641Z,8.00
2019-05-13T05:06:33.429Z,8.10
2019-05-13T05:09:12.591Z,8.20
2019-05-13T05:11:57.631Z,8.10
2019-05-13T05:14:28.305Z,8.20
2019-05-13T05:17:23.629Z,8.20
2019-05-13T05:20:23.327Z,8.30
2019-05-13T05:23:04.880Z,8.30
2019-05-13T05:25:36.862Z,8.40
2019-05-13T05:28:27.442Z,8.40
2019-05-13T05:31:05.347Z,8.60
2019-05-13T05:33:51.718Z,8.60
2019-05-13T05:36:34.075Z,8.70
2019-05-13T05:39:12.369Z,8.80
2019-05-13T05:41:42.266Z,8.80
2019-05-13T05:44:12.499Z,8.90
2019-05-13T05:46:42.781Z,8.90
2019-05-13T05:49:12.696Z,8.90
2019-05-13T05:51:41.893Z,9.00
2019-05-13T05:54:14.880Z,9.00
2019-05-13T05:56:42.466Z,9.10
2019-05-13T05:59:12.543Z,9.10
2019-05-13T06:01:42.718Z,9.20
2019-05-13T06:04:12.701Z,9.20
2019-05-13T06:06:41.743Z,9.30
2019-05-13T06:09:12.141Z,9.30
2019-05-13T06:11:41.728Z,9.40
2019-05-13T06:14:11.277Z,9.40
2019-05-13T06:16:42.393Z,9.40
2019-05-13T06:19:12.150Z,9.40
2019-05-13T06:21:42.068Z,9.50
2019-05-13T06:24:11.656Z,9.50
2019-05-13T06:26:41.993Z,9.60
2019-05-13T06:29:11.707Z,9.60
2019-05-13T06:31:41.972Z,9.60
2019-05-13T06:34:12.416Z,9.80
2019-05-13T06:36:41.831Z,9.90
2019-05-13T06:39:12.413Z,10.00
2019-05-13T06:41:41.694Z,10.00
2019-05-13T06:44:12.124Z,10.10
2019-05-13T06:46:42.353Z,10.10
2019-05-13T06:49:12.166Z,10.10
2019-05-13T06:51:41.768Z,10.20
2019-05-13T06:54:11.313Z,10.20
2019-05-13T06:56:39.770Z,10.40
2019-05-13T06:59:08.144Z,10.40
2019-05-13T07:01:36.668Z,10.40
2019-05-13T07:04:05.020Z,10.40
2019-05-13T07:06:33.368Z,10.50
2019-05-13T07:09:01.683Z,10.50
2019-05-13T07:11:31.405Z,10.60
2019-05-13T07:14:02.090Z,10.70
2019-05-13T07:16:31.728Z,10.70
2019-05-13T07:19:02.604Z,10.80
2019-05-13T07:21:32.404Z,11.00
2019-05-13T07:24:02.413Z,11.10
2019-05-13T07:26:31.889Z,11.10
2019-05-13T07:29:03.555Z,11.20
2019-05-13T07:31:32.505Z,11.30
2019-05-13T07:34:02.373Z,11.40
2019-05-13T07:36:31.840Z,11.50
2019-05-13T07:39:02.244Z,11.60
2019-05-13T07:41:38.978Z,11.60
2019-05-13T07:44:02.932Z,11.70
2019-05-13T07:46:32.417Z,11.80
2019-05-13T07:49:02.271Z,11.90
2019-05-13T07:51:32.215Z,11.90
2019-05-13T07:54:02.359Z,12.00
2019-05-13T07:56:32.497Z,12.10
2019-05-13T07:59:02.127Z,12.10
2019-05-13T08:01:32.754Z,12.20
2019-05-13T08:04:02.479Z,12.20
2019-05-13T08:06:32.462Z,12.30
2019-05-13T08:09:02.086Z,12.40
2019-05-13T08:11:35.280Z,12.50
2019-05-13T08:14:02.594Z,12.50
2019-05-13T08:16:32.371Z,12.60
2019-05-13T08:19:02.264Z,12.60
2019-05-13T08:21:32.296Z,12.70
2019-05-13T08:24:02.801Z,12.80
2019-05-13T08:26:32.462Z,12.90
2019-05-13T08:29:05.598Z,12.90
2019-05-13T08:31:32.789Z,12.90
2019-05-13T08:34:02.578Z,12.90
2019-05-13T08:36:32.702Z,13.00
2019-05-13T08:39:02.831Z,13.10
2019-05-13T08:41:32.457Z,13.20
2019-05-13T08:44:01.969Z,13.20
2019-05-13T08:46:32.299Z,13.20
2019-05-13T08:49:03.829Z,13.20
2019-05-13T08:51:34.756Z,13.30
2019-05-13T08:54:03.751Z,13.40
2019-05-13T08:56:33.065Z,13.30
2019-05-13T08:59:02.461Z,13.30
2019-05-13T09:01:32.072Z,13.40
2019-05-13T09:04:02.597Z,13.50
2019-05-13T09:06:32.117Z,13.50
2019-05-13T09:09:02.458Z,13.50
2019-05-13T09:11:31.921Z,13.60
2019-05-13T09:14:02.275Z,13.60
2019-05-13T09:16:32.084Z,13.70
2019-05-13T09:19:03.713Z,13.80
2019-05-13T09:21:32.655Z,13.80
2019-05-13T09:24:02.333Z,13.80
2019-05-13T09:26:31.823Z,13.80
2019-05-13T09:29:01.568Z,13.90
2019-05-13T09:31:32.378Z,13.90
2019-05-13T09:34:01.908Z,14.00
2019-05-13T09:36:32.424Z,14.10
2019-05-13T09:39:02.252Z,14.10
2019-05-13T09:41:40.120Z,14.10
2019-05-13T09:44:03.488Z,14.20
2019-05-13T09:46:32.965Z,14.10
2019-05-13T09:51:33.454Z,14.30
2019-05-13T09:54:02.871Z,14.40
2019-05-13T09:56:32.259Z,14.50
2019-05-13T09:59:02.001Z,14.60
2019-05-13T10:01:32.158Z,14.60
2019-05-13T10:04:03.100Z,14.60
2019-05-13T10:06:32.963Z,14.60
2019-05-13T10:09:02.630Z,14.70
2019-05-13T10:11:32.017Z,14.80
2019-05-13T10:14:02.051Z,14.80
2019-05-13T10:16:31.922Z,14.90
2019-05-13T10:19:02.732Z,15.00
2019-05-13T10:21:32.828Z,15.10
2019-05-13T10:24:02.318Z,15.10
2019-05-13T10:26:32.232Z,15.00
2019-05-13T10:29:01.822Z,15.00
2019-05-13T10:31:31.491Z,15.10
2019-05-13T10:34:02.253Z,15.10
2019-05-13T10:36:32.192Z,15.30
2019-05-13T10:39:01.606Z,15.40
2019-05-13T10:41:33.315Z,15.40
2019-05-13T10:44:02.989Z,15.60
2019-05-13T10:46:32.700Z,15.70
2019-05-13T10:49:02.141Z,15.90
2019-05-13T10:51:32.670Z,16.00
2019-05-13T10:54:02.141Z,16.10
2019-05-13T10:56:32.780Z,16.10
2019-05-13T10:59:03.247Z,16.10
2019-05-13T11:01:32.883Z,16.20
2019-05-13T11:04:02.790Z,16.40
2019-05-13T11:06:32.641Z,16.60
2019-05-13T11:09:04.705Z,16.40
2019-05-13T11:11:34.125Z,16.40
2019-05-13T11:14:10.998Z,16.50
2019-05-13T11:16:36.182Z,16.50
2019-05-13T11:19:05.625Z,16.70
2019-05-13T11:21:35.015Z,16.90
2019-05-13T11:24:04.628Z,17.10
2019-05-13T11:26:36.390Z,17.10
2019-05-13T11:29:05.089Z,17.20
2019-05-13T11:31:34.646Z,17.30
2019-05-13T11:34:04.021Z,17.40
2019-05-13T11:36:33.590Z,17.50
2019-05-13T11:39:04.633Z,17.50
2019-05-13T11:41:34.033Z,17.60
2019-05-13T11:44:12.714Z,17.80
2019-05-13T11:46:34.401Z,18.10
2019-05-13T11:49:03.787Z,18.70
2019-05-13T11:51:33.200Z,20.50
2019-05-13T11:54:02.787Z,22.20
2019-05-13T11:56:33.650Z,23.00
2019-05-13T11:59:04.340Z,24.50
2019-05-13T12:01:34.236Z,26.10
2019-05-13T12:04:03.684Z,26.40
2019-05-13T12:06:35.060Z,26.80
2019-05-13T12:09:06.546Z,26.50
2019-05-13T12:11:35.945Z,26.30
2019-05-13T12:14:05.642Z,26.60
2019-05-13T12:16:35.338Z,27.30
2019-05-13T12:19:04.821Z,27.30
2019-05-13T12:21:41.691Z,28.00
2019-05-13T12:24:10.573Z,28.80
2019-05-13T12:26:36.949Z,29.40
2019-05-13T12:29:06.321Z,30.20
2019-05-13T12:31:35.724Z,30.60
2019-05-13T12:34:05.155Z,30.90
2019-05-13T12:36:34.688Z,31.10
2019-05-13T12:39:05.623Z,31.80
2019-05-13T12:41:35.042Z,31.00
2019-05-13T12:44:04.499Z,32.70
2019-05-13T12:46:33.881Z,33.60
2019-05-13T12:49:04.809Z,34.20
2019-05-13T12:51:34.221Z,34.10
2019-05-13T12:54:04.022Z,33.70
2019-05-13T12:56:33.550Z,33.80
2019-05-13T12:59:13.676Z,34.10
2019-05-13T13:01:43.091Z,33.20
2019-05-13T13:04:12.709Z,33.50
2019-05-13T13:06:45.476Z,34.60
2019-05-13T13:09:13.203Z,35.80
2019-05-13T13:11:43.746Z,34.70
2019-05-13T13:16:44.360Z,34.10
2019-05-13T13:19:14.926Z,34.30
2019-05-13T13:21:44.591Z,34.20
2019-05-13T13:24:13.993Z,33.30
2019-05-13T13:26:44.263Z,33.00
2019-05-13T13:29:13.652Z,33.40
2019-05-13T13:31:43.660Z,34.20
2019-05-13T13:34:17.936Z,34.60
2019-05-13T13:36:45.883Z,35.00
2019-05-13T13:39:15.383Z,35.10
2019-05-13T13:41:44.857Z,34.90
2019-05-13T13:44:14.252Z,34.20
2019-05-13T13:46:49.317Z,34.10
2019-05-13T13:49:14.623Z,34.60
2019-05-13T13:51:44.981Z,34.30
2019-05-13T13:54:14.492Z,34.40
2019-05-13T13:56:44.694Z,35.20
2019-05-13T13:59:14.495Z,34.20
2019-05-13T14:01:43.805Z,33.70
2019-05-13T14:04:16.463Z,34.70
2019-05-13T14:06:32.631Z,14.30
2019-05-13T14:06:50.058Z,34.60
2019-05-13T14:09:15.412Z,35.40
2019-05-13T14:11:44.761Z,35.30
2019-05-13T14:14:14.257Z,35.20
2019-05-13T14:16:46.686Z,35.90
2019-05-13T14:19:14.695Z,33.20
2019-05-13T14:21:44.100Z,32.90
2019-05-13T14:24:13.509Z,32.60
2019-05-13T14:26:43.588Z,33.00
2019-05-13T14:29:13.096Z,33.60
2019-05-13T14:31:42.768Z,35.00
2019-05-13T14:34:12.119Z,35.30
2019-05-13T14:36:41.514Z,35.30
2019-05-13T14:39:12.056Z,35.50
2019-05-13T14:41:42.623Z,35.80
2019-05-13T14:44:12.587Z,35.80
2019-05-13T14:46:47.519Z,35.20
2019-05-13T14:49:13.685Z,35.50
2019-05-13T14:51:43.148Z,35.60
2019-05-13T14:54:13.054Z,35.40
2019-05-13T14:56:42.644Z,35.90
2019-05-13T14:59:12.316Z,35.70
2019-05-13T15:01:41.768Z,35.30
2019-05-13T15:04:12.165Z,35.80
2019-05-13T15:06:41.872Z,36.20
2019-05-13T15:09:12.527Z,36.90
2019-05-13T15:11:42.293Z,36.30
2019-05-13T15:14:11.830Z,36.00
2019-05-13T15:16:42.411Z,35.90
2019-05-13T15:19:12.204Z,36.00
2019-05-13T15:21:41.653Z,35.40
2019-05-13T15:24:12.374Z,34.30
2019-05-13T15:26:42.397Z,33.30
2019-05-13T15:29:11.915Z,32.80
2019-05-13T15:31:42.160Z,30.10
2019-05-13T15:34:12.196Z,31.40
2019-05-13T15:36:42.069Z,32.80
2019-05-13T15:39:11.945Z,33.50
2019-05-13T15:41:41.923Z,35.30
2019-05-13T15:44:11.658Z,35.00
2019-05-13T15:46:41.912Z,35.00
2019-05-13T15:49:12.396Z,33.00
2019-05-13T15:51:42.360Z,34.00
2019-05-13T15:54:15.368Z,33.60
2019-05-13T15:56:42.957Z,32.90
2019-05-13T15:59:12.725Z,32.40
2019-05-13T16:01:42.186Z,30.90
2019-05-13T16:04:13.556Z,28.70
2019-05-13T16:06:42.805Z,27.60
2019-05-13T16:09:12.182Z,28.10
2019-05-13T16:11:41.704Z,26.40
2019-05-13T16:14:11.829Z,24.80
2019-05-13T16:16:41.913Z,24.20
2019-05-13T16:19:11.463Z,23.50
2019-05-13T16:21:41.567Z,23.40
2019-05-13T16:24:12.014Z,22.70
2019-05-13T16:26:42.747Z,22.10
2019-05-13T16:29:12.744Z,22.00
2019-05-13T16:31:42.384Z,22.00
2019-05-13T16:34:13.468Z,22.20
2019-05-13T16:36:43.223Z,21.70
2019-05-13T16:39:12.749Z,21.60
2019-05-13T16:41:42.736Z,22.00
2019-05-13T16:44:12.247Z,22.50
2019-05-13T16:46:42.756Z,22.70
2019-05-13T16:49:12.368Z,22.50
2019-05-13T16:51:42.591Z,23.30
2019-05-13T16:54:12.558Z,22.80
2019-05-13T16:56:42.239Z,23.10
2019-05-13T16:59:11.773Z,22.80
2019-05-13T17:01:42.047Z,22.70
2019-05-13T17:04:12.609Z,22.60
2019-05-13T17:06:42.166Z,21.90
2019-05-13T17:09:11.735Z,22.70
2019-05-13T17:11:41.623Z,22.00
2019-05-13T17:14:11.096Z,22.20
2019-05-13T17:16:41.438Z,22.40
2019-05-13T17:19:12.153Z,22.40
2019-05-13T17:21:41.796Z,22.40
2019-05-13T17:24:12.455Z,22.50
2019-05-13T17:26:42.170Z,23.10
2019-05-13T17:29:12.103Z,23.20
2019-05-13T17:31:41.740Z,23.20
2019-05-13T17:34:12.223Z,23.10
2019-05-13T17:36:42.140Z,22.50
2019-05-13T17:39:12.599Z,22.30
2019-05-13T17:41:42.120Z,23.70
2019-05-13T17:44:11.821Z,24.30
2019-05-13T17:46:41.824Z,23.70
2019-05-13T17:49:11.997Z,23.90
2019-05-13T17:51:42.516Z,23.90
2019-05-13T17:54:12.195Z,23.50
2019-05-13T17:56:41.641Z,22.80
2019-05-13T17:59:11.589Z,21.60
2019-05-13T18:01:41.467Z,20.10
2019-05-13T18:04:11.905Z,19.00
2019-05-13T18:06:41.864Z,17.80
2019-05-13T18:09:12.116Z,17.30
2019-05-13T18:11:41.872Z,17.30
2019-05-13T18:14:11.643Z,16.80
2019-05-13T18:16:41.999Z,16.70
2019-05-13T18:19:12.054Z,16.40
2019-05-13T18:21:42.468Z,16.40
2019-05-13T18:24:12.141Z,16.30
2019-05-13T18:26:42.061Z,16.30
2019-05-13T18:29:12.309Z,16.10
2019-05-13T18:31:42.298Z,15.90
2019-05-13T18:34:12.366Z,15.90
2019-05-13T18:36:42.555Z,15.60
2019-05-13T18:39:12.449Z,15.60
2019-05-13T18:41:47.358Z,15.60
2019-05-13T18:44:16.753Z,15.40
2019-05-13T18:46:46.141Z,15.40
2019-05-13T18:49:15.493Z,15.30
2019-05-13T18:51:44.935Z,15.30
2019-05-13T18:54:14.599Z,15.10
2019-05-13T18:56:46.555Z,15.00
2019-05-13T18:59:15.230Z,15.00
2019-05-13T19:01:44.568Z,14.90
2019-05-13T19:04:14.272Z,14.70
2019-05-13T19:06:43.701Z,14.70
2019-05-13T19:09:13.132Z,14.50
2019-05-13T19:11:42.910Z,14.50
2019-05-13T19:14:12.480Z,14.50
2019-05-13T19:16:42.311Z,14.40
2019-05-13T19:19:15.706Z,14.30
2019-05-13T19:21:42.821Z,14.30
2019-05-13T19:24:13.343Z,14.20
2019-05-13T19:26:42.786Z,14.10
2019-05-13T19:29:12.091Z,14.10
2019-05-13T19:31:41.944Z,14.00
2019-05-13T19:34:12.516Z,13.90
2019-05-13T19:36:42.133Z,13.90
2019-05-13T19:39:11.881Z,13.70
2019-05-13T19:41:42.266Z,13.60
2019-05-13T19:44:11.911Z,13.50
2019-05-13T19:46:42.165Z,13.40
2019-05-13T19:49:12.336Z,13.40
2019-05-13T19:51:42.968Z,13.30
2019-05-13T19:54:12.503Z,13.20
2019-05-13T19:56:42.040Z,13.20
2019-05-13T19:59:12.453Z,13.20
2019-05-13T20:01:42.409Z,13.20
2019-05-13T20:04:11.821Z,13.00
2019-05-13T20:06:41.591Z,13.00
2019-05-13T20:09:11.073Z,13.00
2019-05-13T20:11:41.984Z,13.00
2019-05-13T20:14:12.221Z,12.90
2019-05-13T20:16:41.854Z,12.90
2019-05-13T20:19:11.942Z,12.90
2019-05-13T20:21:42.560Z,12.80
2019-05-13T20:24:12.270Z,12.70
2019-05-13T20:26:41.818Z,12.70
2019-05-13T20:29:12.408Z,12.70
2019-05-13T20:31:41.888Z,12.70
2019-05-13T20:34:11.939Z,12.60
2019-05-13T20:36:42.322Z,12.50
2019-05-13T20:39:11.907Z,12.50
2019-05-13T20:41:44.311Z,12.40
2019-05-13T20:44:25.787Z,12.30
2019-05-13T20:46:55.108Z,12.30
2019-05-13T20:49:24.414Z,12.30
2019-05-13T20:51:53.812Z,12.30
2019-05-13T20:54:23.234Z,12.30
2019-05-13T20:56:52.558Z,12.20
2019-05-13T20:59:22.700Z,12.20
2019-05-13T21:01:54.550Z,12.20
2019-05-13T21:04:23.989Z,12.30
2019-05-13T21:06:53.392Z,12.20
2019-05-13T21:09:22.834Z,12.20
2019-05-13T21:11:52.453Z,12.20
2019-05-13T21:14:21.849Z,12.20
2019-05-13T21:16:53.619Z,12.20
2019-05-13T21:19:22.432Z,12.20
2019-05-13T21:21:51.870Z,12.20
2019-05-13T21:24:21.471Z,12.10
2019-05-13T21:26:51.223Z,12.00
2019-05-13T21:29:37.693Z,12.00
2019-05-13T21:35:41.857Z,12.00
2019-05-13T21:38:11.449Z,12.00
2019-05-13T21:40:41.545Z,12.10
2019-05-13T21:43:11.036Z,12.10
2019-05-13T21:45:41.553Z,12.10
2019-05-13T21:48:11.067Z,12.00
2019-05-13T21:50:41.448Z,12.00
2019-05-13T21:53:12.443Z,12.00
2019-05-13T21:55:42.045Z,11.90
2019-05-13T21:58:14.071Z,11.90
2019-05-13T22:00:44.191Z,11.90
2019-05-13T22:03:13.566Z,11.80
2019-05-13T22:05:42.985Z,11.70
2019-05-13T22:08:12.353Z,11.70
2019-05-13T22:10:41.772Z,11.70
2019-05-13T22:13:11.820Z,11.70
2019-05-13T22:15:41.644Z,11.70
2019-05-13T22:18:11.386Z,11.70
2019-05-13T22:20:49.889Z,11.70
2019-05-13T22:23:12.025Z,11.60
2019-05-13T22:25:43.637Z,11.60
2019-05-13T22:28:12.465Z,11.60
2019-05-13T22:30:41.845Z,11.60
2019-05-13T22:33:12.311Z,11.60
2019-05-13T22:35:41.852Z,11.60
2019-05-13T22:38:12.225Z,11.50
2019-05-13T22:40:42.130Z,11.50
2019-05-13T22:43:12.301Z,11.50
2019-05-13T22:45:42.008Z,11.50
2019-05-13T22:48:14.775Z,11.40
2019-05-13T22:50:43.032Z,11.40
2019-05-13T22:53:12.370Z,11.40
2019-05-13T22:55:41.992Z,11.40
2019-05-13T22:58:11.448Z,11.40
2019-05-13T23:00:42.378Z,11.40
2019-05-13T23:03:11.740Z,11.30
2019-05-13T23:05:41.621Z,11.40
2019-05-13T23:08:11.362Z,11.40
2019-05-13T23:10:42.107Z,11.40
2019-05-13T23:13:11.617Z,11.30
2019-05-13T23:15:41.001Z,11.30
2019-05-13T23:18:11.733Z,11.40
2019-05-13T23:20:41.241Z,11.40
2019-05-13T23:23:11.776Z,11.40
2019-05-13T23:25:43.255Z,11.30
2019-05-13T23:28:12.289Z,11.40
2019-05-13T23:30:41.820Z,11.30
2019-05-13T23:33:11.721Z,11.30
2019-05-13T23:35:41.808Z,11.30
2019-05-13T23:38:11.411Z,11.30
2019-05-13T23:40:42.138Z,11.30
2019-05-13T23:43:11.623Z,11.20
2019-05-13T23:45:41.717Z,11.20
2019-05-13T23:48:11.218Z,11.20
2019-05-13T23:50:41.485Z,11.20
2019-05-13T23:53:11.001Z,11.20
2019-05-13T23:55:41.389Z,11.10
2019-05-13T23:58:12.174Z,11.10
